createdAt,value
2019-05-29T00:02:15.797Z,23.35
2019-05-29T00:04:32.466Z,23.23
2019-05-29T00:06:49.453Z,22.75
2019-05-29T00:09:08.065Z,22.75
2019-05-29T00:11:25.058Z,23.38
2019-05-29T00:13:43.480Z,23.66
2019-05-29T00:16:00.355Z,22.69
2019-05-29T00:18:18.596Z,23.80
2019-05-29T00:20:35.999Z,23.26
2019-05-29T00:22:53.079Z,23.06
2019-05-29T00:25:10.635Z,23.60
2019-05-29T00:27:27.441Z,23.23
2019-05-29T00:29:44.328Z,23.23
2019-05-29T00:32:01.808Z,22.96
2019-05-29T00:34:18.476Z,23.26
2019-05-29T00:36:36.259Z,23.26
2019-05-29T00:38:53.465Z,21.56
2019-05-29T00:41:10.836Z,22.28
2019-05-29T00:43:28.042Z,22.91
2019-05-29T00:45:45.057Z,22.28
2019-05-29T00:48:01.689Z,23.00
2019-05-29T00:50:18.370Z,22.90
2019-05-29T00:52:35.252Z,22.90
2019-05-29T00:54:52.226Z,22.72
2019-05-29T00:57:09.250Z,20.20
2019-05-29T00:59:26.275Z,22.50
2019-05-29T01:01:43.074Z,21.27
2019-05-29T01:03:59.803Z,22.31
2019-05-29T01:06:16.393Z,20.93
2019-05-29T01:08:33.248Z,20.93
2019-05-29T01:10:50.245Z,21.36
2019-05-29T01:13:07.414Z,20.68
2019-05-29T01:15:24.574Z,21.86
2019-05-29T01:17:41.438Z,22.43
2019-05-29T01:19:58.291Z,21.36
2019-05-29T01:22:16.138Z,22.06
2019-05-29T01:24:33.353Z,21.64
2019-05-29T01:26:50.463Z,21.39
2019-05-29T01:29:07.431Z,20.97
2019-05-29T01:31:24.349Z,21.73
2019-05-29T01:33:41.440Z,20.34
2019-05-29T01:35:58.604Z,20.58
2019-05-29T01:38:15.322Z,21.86
2019-05-29T01:40:32.251Z,20.33
2019-05-29T01:42:50.187Z,19.68
2019-05-29T01:45:08.625Z,20.37
2019-05-29T01:47:25.543Z,20.57
2019-05-29T01:49:42.379Z,21.77
2019-05-29T01:51:59.375Z,20.26
2019-05-29T01:54:17.484Z,20.58
2019-05-29T01:56:35.244Z,19.94
2019-05-29T01:58:52.100Z,19.45
2019-05-29T02:01:09.293Z,19.15
2019-05-29T02:03:26.286Z,20.04
2019-05-29T02:05:43.354Z,21.29
2019-05-29T02:08:00.248Z,20.78
2019-05-29T02:10:18.234Z,20.72
2019-05-29T02:12:35.819Z,20.88
2019-05-29T02:14:52.337Z,21.08
2019-05-29T02:17:09.472Z,22.25
2019-05-29T02:19:26.593Z,20.18
2019-05-29T02:21:43.384Z,20.12
2019-05-29T02:24:00.337Z,21.21
2019-05-29T02:26:18.131Z,20.99
2019-05-29T02:28:34.961Z,20.73
2019-05-29T02:30:51.992Z,21.45
2019-05-29T02:33:09.872Z,20.86
2019-05-29T02:35:29.425Z,22.99
2019-05-29T02:37:45.427Z,22.88
2019-05-29T02:40:02.274Z,20.71
2019-05-29T02:42:20.874Z,21.51
2019-05-29T02:44:37.492Z,21.45
2019-05-29T02:46:54.457Z,21.45
2019-05-29T02:49:11.421Z,21.58
2019-05-29T02:51:28.841Z,20.61
2019-05-29T02:56:24.954Z,22.26
2019-05-29T02:58:41.583Z,21.87
2019-05-29T03:00:58.654Z,20.67
2019-05-29T03:03:15.551Z,21.69
2019-05-29T03:05:32.345Z,21.70
2019-05-29T03:07:49.305Z,20.77
2019-05-29T03:10:07.125Z,21.49
2019-05-29T03:12:25.012Z,19.69
2019-05-29T03:14:42.367Z,20.08
2019-05-29T03:16:59.528Z,20.58
2019-05-29T03:19:16.474Z,20.12
2019-05-29T03:21:34.767Z,20.06
2019-05-29T03:23:52.463Z,20.76
2019-05-29T03:26:09.459Z,19.99
2019-05-29T03:28:27.593Z,21.25
2019-05-29T03:30:46.351Z,19.65
2019-05-29T03:33:03.250Z,19.65
2019-05-29T03:35:20.262Z,21.66
2019-05-29T03:37:38.816Z,19.73
2019-05-29T03:39:55.649Z,20.73
2019-05-29T03:42:12.423Z,19.89
2019-05-29T03:44:30.759Z,19.20
2019-05-29T03:46:47.770Z,20.93
2019-05-29T03:49:04.473Z,20.46
2019-05-29T03:51:21.427Z,20.46
2019-05-29T03:53:38.632Z,22.11
2019-05-29T03:55:55.582Z,20.00
2019-05-29T03:58:12.538Z,19.96
2019-05-29T04:00:35.941Z,22.35
2019-05-29T04:02:48.248Z,22.35
2019-05-29T04:05:05.271Z,21.85
2019-05-29T04:07:22.318Z,20.36
2019-05-29T04:09:39.287Z,21.39
2019-05-29T04:11:56.381Z,21.72
2019-05-29T04:14:13.314Z,22.50
2019-05-29T04:16:52.435Z,22.10
2019-05-29T04:18:51.332Z,22.74
2019-05-29T04:21:08.336Z,23.00
2019-05-29T04:23:25.283Z,22.26
2019-05-29T04:25:43.207Z,22.83
2019-05-29T04:28:00.513Z,20.74
2019-05-29T04:30:17.253Z,22.24
2019-05-29T04:32:34.451Z,21.78
2019-05-29T04:34:51.358Z,19.68
2019-05-29T04:37:08.416Z,19.68
2019-05-29T04:39:25.539Z,21.03
2019-05-29T04:41:42.442Z,19.97
2019-05-29T04:43:59.273Z,19.73
2019-05-29T04:46:16.109Z,20.30
2019-05-29T04:48:34.028Z,19.42
2019-05-29T04:50:51.284Z,20.67
2019-05-29T04:53:08.280Z,20.65
2019-05-29T04:55:25.343Z,20.59
2019-05-29T04:57:43.499Z,19.63
2019-05-29T05:00:00.416Z,19.32
2019-05-29T05:02:17.295Z,20.34
2019-05-29T05:04:35.179Z,21.39
2019-05-29T05:06:52.305Z,21.63
2019-05-29T05:10:46.636Z,21.81
2019-05-29T05:13:03.988Z,21.81
2019-05-29T05:15:20.810Z,21.71
2019-05-29T05:17:38.041Z,21.27
2019-05-29T05:19:55.248Z,21.27
2019-05-29T05:22:12.265Z,21.36
2019-05-29T05:24:30.158Z,20.27
2019-05-29T05:26:47.269Z,19.62
2019-05-29T05:29:04.259Z,19.35
2019-05-29T05:31:21.297Z,19.89
2019-05-29T05:33:38.659Z,19.30
2019-05-29T05:35:55.589Z,19.01
2019-05-29T05:38:12.469Z,20.57
2019-05-29T05:40:30.666Z,19.43
2019-05-29T05:42:47.947Z,20.47
2019-05-29T05:45:05.600Z,20.47
2019-05-29T05:47:22.578Z,20.33
2019-05-29T05:49:39.663Z,19.47
2019-05-29T05:51:56.491Z,20.58
2019-05-29T05:54:13.465Z,20.58
2019-05-29T05:56:31.376Z,19.41
2019-05-29T05:58:48.574Z,21.07
2019-05-29T06:01:05.535Z,20.84
2019-05-29T06:03:22.447Z,21.24
2019-05-29T06:05:40.217Z,21.67
2019-05-29T06:07:57.536Z,21.70
2019-05-29T06:10:14.455Z,22.14
2019-05-29T06:12:32.439Z,21.98
2019-05-29T06:14:49.341Z,22.31
2019-05-29T06:17:08.055Z,22.26
2019-05-29T06:19:25.253Z,22.30
2019-05-29T06:21:42.888Z,20.53
2019-05-29T06:23:59.631Z,20.48
2019-05-29T06:26:16.549Z,19.72
2019-05-29T06:28:33.422Z,20.14
2019-05-29T06:30:50.521Z,19.60
2019-05-29T06:33:07.470Z,21.23
2019-05-29T06:35:24.460Z,21.27
2019-05-29T06:37:41.775Z,19.76
2019-05-29T06:39:59.026Z,19.95
2019-05-29T06:42:17.129Z,18.63
2019-05-29T06:44:36.397Z,18.37
2019-05-29T06:46:53.262Z,19.39
2019-05-29T06:49:09.980Z,21.33
2019-05-29T06:51:26.858Z,19.94
2019-05-29T06:53:43.921Z,20.51
2019-05-29T06:56:02.261Z,19.31
2019-05-29T06:58:19.586Z,19.55
2019-05-29T07:00:38.152Z,19.61
2019-05-29T07:02:55.536Z,19.65
2019-05-29T07:05:12.447Z,20.27
2019-05-29T07:07:29.401Z,19.52
2019-05-29T07:09:47.163Z,19.44
2019-05-29T07:12:05.134Z,19.19
2019-05-29T07:14:22.133Z,20.32
2019-05-29T07:16:45.433Z,19.16
2019-05-29T07:21:17.341Z,19.84
2019-05-29T07:23:34.439Z,18.64
2019-05-29T07:25:51.536Z,17.89
2019-05-29T07:28:09.092Z,20.11
2019-05-29T07:30:26.118Z,19.03
2019-05-29T07:32:51.034Z,19.46
2019-05-29T07:35:03.958Z,20.51
2019-05-29T07:37:21.431Z,19.49
2019-05-29T07:39:39.431Z,21.26
2019-05-29T07:41:57.513Z,20.04
2019-05-29T07:44:15.118Z,20.04
2019-05-29T07:46:32.251Z,20.21
2019-05-29T07:48:50.585Z,20.88
2019-05-29T07:51:08.848Z,21.88
2019-05-29T07:53:25.979Z,21.88
2019-05-29T07:55:42.970Z,22.68
2019-05-29T07:58:00.490Z,21.68
2019-05-29T08:00:17.993Z,21.79
2019-05-29T08:02:34.822Z,22.33
2019-05-29T08:04:51.690Z,20.73
2019-05-29T08:07:08.491Z,20.73
2019-05-29T08:09:25.517Z,23.99
2019-05-29T08:11:43.540Z,22.14
2019-05-29T08:14:00.605Z,20.58
2019-05-29T08:16:17.585Z,20.94
2019-05-29T08:18:34.390Z,22.59
2019-05-29T08:20:51.525Z,23.12
2019-05-29T08:23:08.352Z,23.73
2019-05-29T08:25:28.103Z,24.76
2019-05-29T08:27:46.580Z,25.65
2019-05-29T08:30:03.618Z,24.79
2019-05-29T08:32:20.315Z,24.11
2019-05-29T08:34:37.571Z,24.71
2019-05-29T08:37:04.888Z,24.05
2019-05-29T08:39:12.562Z,25.75
2019-05-29T08:41:29.635Z,25.37
2019-05-29T08:43:48.446Z,25.31
2019-05-29T08:46:05.534Z,21.37
2019-05-29T08:48:22.263Z,21.37
2019-05-29T08:50:39.293Z,24.35
2019-05-29T08:52:56.532Z,22.01
2019-05-29T08:55:14.001Z,23.70
2019-05-29T08:57:31.248Z,21.61
2019-05-29T08:59:48.520Z,23.25
2019-05-29T09:02:05.585Z,21.22
2019-05-29T09:04:22.838Z,23.80
2019-05-29T09:06:40.666Z,24.19
2019-05-29T09:08:57.811Z,24.07
2019-05-29T09:11:15.038Z,24.07
2019-05-29T09:13:31.832Z,21.32
2019-05-29T09:15:48.531Z,23.45
2019-05-29T09:18:05.572Z,21.49
2019-05-29T09:20:37.142Z,23.70
2019-05-29T09:22:42.852Z,22.71
2019-05-29T09:24:59.880Z,22.69
2019-05-29T09:27:17.129Z,25.50
2019-05-29T09:29:34.483Z,23.39
2019-05-29T09:31:51.387Z,23.49
2019-05-29T09:34:10.051Z,23.32
2019-05-29T09:36:27.277Z,25.12
2019-05-29T09:38:44.336Z,25.04
2019-05-29T09:41:01.458Z,25.36
2019-05-29T09:43:19.798Z,25.73
2019-05-29T09:45:38.248Z,24.76
2019-05-29T09:47:55.435Z,26.30
2019-05-29T09:50:12.485Z,24.87
2019-05-29T09:52:30.926Z,25.84
2019-05-29T09:54:48.337Z,22.29
2019-05-29T09:57:05.405Z,25.80
2019-05-29T09:59:22.503Z,26.77
2019-05-29T10:01:39.441Z,23.63
2019-05-29T10:03:57.596Z,24.99
2019-05-29T10:06:15.255Z,25.32
2019-05-29T10:08:32.498Z,24.99
2019-05-29T10:10:49.454Z,26.22
2019-05-29T10:13:06.316Z,24.98
2019-05-29T10:15:24.435Z,25.05
2019-05-29T10:17:41.306Z,25.16
2019-05-29T10:19:58.953Z,26.05
2019-05-29T10:22:16.041Z,26.52
2019-05-29T10:24:32.769Z,26.93
2019-05-29T10:26:49.556Z,29.61
2019-05-29T10:29:09.223Z,29.61
2019-05-29T10:31:25.225Z,29.12
2019-05-29T10:33:42.477Z,29.57
2019-05-29T10:36:03.403Z,28.16
2019-05-29T10:38:18.497Z,25.93
2019-05-29T10:40:35.400Z,26.97
2019-05-29T10:42:53.507Z,28.08
2019-05-29T10:45:10.523Z,29.97
2019-05-29T10:47:27.370Z,29.97
2019-05-29T10:49:45.527Z,27.45
2019-05-29T10:52:14.925Z,27.10
2019-05-29T10:54:21.800Z,27.10
2019-05-29T10:56:38.628Z,27.98
2019-05-29T11:02:30.774Z,31.66
2019-05-29T11:04:52.941Z,27.44
2019-05-29T11:07:06.306Z,27.44
2019-05-29T11:09:23.319Z,30.41
2019-05-29T11:11:40.256Z,29.60
2019-05-29T11:13:57.261Z,32.71
2019-05-29T11:16:14.332Z,27.07
2019-05-29T11:18:31.444Z,31.75
2019-05-29T11:20:49.338Z,28.80
2019-05-29T11:23:07.431Z,30.04
2019-05-29T11:25:27.563Z,30.28
2019-05-29T11:27:43.975Z,32.13
2019-05-29T11:30:00.632Z,30.59
2019-05-29T11:32:17.539Z,26.70
2019-05-29T11:34:34.281Z,30.84
2019-05-29T11:36:51.940Z,32.23
2019-05-29T11:39:09.955Z,29.95
2019-05-29T11:41:27.246Z,29.29
2019-05-29T11:43:44.281Z,30.90
2019-05-29T11:46:02.477Z,28.80
2019-05-29T11:48:19.343Z,28.42
2019-05-29T11:50:36.495Z,30.00
2019-05-29T11:52:54.325Z,29.15
2019-05-29T11:55:11.427Z,29.06
2019-05-29T11:57:39.880Z,29.23
2019-05-29T12:00:01.259Z,31.73
2019-05-29T12:02:15.973Z,27.81
2019-05-29T12:04:33.043Z,27.81
2019-05-29T12:06:51.170Z,30.57
2019-05-29T12:09:10.920Z,32.38
2019-05-29T12:11:28.591Z,31.62
2019-05-29T12:13:45.643Z,28.73
2019-05-29T12:16:02.657Z,29.62
2019-05-29T12:18:24.370Z,28.81
2019-05-29T12:20:39.484Z,29.39
2019-05-29T12:23:18.995Z,29.01
2019-05-29T12:25:15.229Z,29.59
2019-05-29T12:27:32.553Z,28.07
2019-05-29T12:29:49.763Z,29.46
2019-05-29T12:32:10.346Z,27.89
2019-05-29T12:34:26.337Z,27.89
2019-05-29T12:36:43.910Z,28.39
2019-05-29T12:39:02.241Z,30.02
2019-05-29T12:41:19.556Z,26.43
2019-05-29T12:43:36.673Z,26.43
2019-05-29T12:45:53.556Z,29.97
2019-05-29T12:48:13.984Z,30.86
2019-05-29T12:50:34.200Z,30.86
2019-05-29T12:52:48.480Z,27.23
2019-05-29T12:55:06.104Z,31.58
2019-05-29T12:57:23.670Z,32.24
2019-05-29T12:59:44.092Z,31.69
2019-05-29T13:02:02.687Z,28.18
2019-05-29T13:04:20.509Z,28.21
2019-05-29T13:06:37.498Z,29.20
2019-05-29T13:08:54.722Z,28.41
2019-05-29T13:11:11.663Z,29.92
2019-05-29T13:13:28.641Z,27.92
2019-05-29T13:15:46.059Z,30.59
2019-05-29T13:18:07.881Z,28.51
2019-05-29T13:20:22.427Z,26.07
2019-05-29T13:22:39.558Z,26.07
2019-05-29T13:24:57.343Z,27.73
2019-05-29T13:27:15.221Z,30.31
2019-05-29T13:29:33.029Z,31.05
2019-05-29T13:31:54.877Z,32.11
2019-05-29T13:34:09.715Z,28.36
2019-05-29T13:36:26.647Z,30.05
2019-05-29T13:38:43.646Z,30.05
2019-05-29T13:41:02.305Z,29.38
2019-05-29T13:43:19.856Z,29.38
2019-05-29T13:45:36.950Z,29.18
2019-05-29T13:47:53.563Z,30.25
2019-05-29T13:50:12.595Z,30.10
2019-05-29T13:52:28.823Z,30.87
2019-05-29T13:54:45.679Z,32.26
2019-05-29T13:57:04.175Z,30.63
2019-05-29T13:59:21.345Z,30.63
2019-05-29T14:01:38.781Z,28.42
2019-05-29T14:03:55.457Z,28.12
2019-05-29T14:06:12.426Z,28.12
2019-05-29T14:08:30.594Z,29.79
2019-05-29T14:14:11.804Z,29.94
2019-05-29T14:16:28.294Z,28.56
2019-05-29T14:18:47.939Z,27.38
2019-05-29T14:21:05.345Z,27.88
2019-05-29T14:23:22.273Z,28.44
2019-05-29T14:25:39.450Z,27.27
2019-05-29T14:27:56.406Z,29.53
2019-05-29T14:30:14.125Z,30.26
2019-05-29T14:32:31.296Z,31.30
2019-05-29T14:34:48.288Z,32.20
2019-05-29T14:37:06.291Z,29.49
2019-05-29T14:39:25.932Z,29.55
2019-05-29T14:41:42.861Z,28.10
2019-05-29T14:44:01.725Z,27.06
2019-05-29T14:46:19.235Z,29.12
2019-05-29T14:48:36.602Z,30.48
2019-05-29T14:50:53.454Z,30.48
2019-05-29T14:53:11.432Z,30.57
2019-05-29T14:55:29.117Z,32.34
2019-05-29T14:57:45.929Z,31.68
2019-05-29T15:00:06.798Z,29.50
2019-05-29T15:02:24.030Z,29.17
2019-05-29T15:04:41.293Z,31.57
2019-05-29T15:06:58.398Z,27.19
2019-05-29T15:09:15.480Z,27.18
2019-05-29T15:11:33.475Z,28.66
2019-05-29T15:13:50.502Z,29.86
2019-05-29T15:16:09.005Z,31.81
2019-05-29T15:18:26.253Z,32.64
2019-05-29T15:20:43.030Z,33.72
2019-05-29T15:22:59.794Z,33.74
2019-05-29T15:25:23.471Z,36.40
2019-05-29T15:27:35.412Z,36.40
2019-05-29T15:29:52.253Z,36.70
2019-05-29T15:32:10.320Z,36.96
2019-05-29T15:34:27.443Z,37.17
2019-05-29T15:36:44.515Z,31.19
2019-05-29T15:39:01.334Z,32.46
2019-05-29T15:41:20.090Z,34.24
2019-05-29T15:43:37.001Z,31.25
2019-05-29T15:45:53.648Z,32.51
2019-05-29T15:48:11.023Z,31.70
2019-05-29T15:50:28.653Z,33.37
2019-05-29T15:52:45.983Z,32.15
2019-05-29T15:55:19.976Z,31.83
2019-05-29T15:57:21.517Z,33.27
2019-05-29T15:59:38.467Z,32.03
2019-05-29T16:01:55.530Z,33.26
2019-05-29T16:07:11.920Z,31.07
2019-05-29T16:09:29.483Z,31.73
2019-05-29T16:11:47.478Z,28.79
2019-05-29T16:14:04.430Z,27.50
2019-05-29T16:16:21.499Z,28.55
2019-05-29T16:18:38.513Z,27.89
2019-05-29T16:20:58.436Z,26.80
2019-05-29T16:23:31.045Z,26.80
2019-05-29T16:25:40.041Z,25.47
2019-05-29T16:27:53.446Z,26.37
2019-05-29T16:30:11.415Z,26.39
2019-05-29T16:32:28.557Z,28.83
2019-05-29T16:34:45.548Z,28.83
2019-05-29T16:37:02.350Z,30.42
2019-05-29T16:39:21.449Z,31.14
2019-05-29T16:41:38.939Z,30.80
2019-05-29T16:43:55.733Z,30.80
2019-05-29T16:46:15.974Z,29.51
2019-05-29T16:48:31.568Z,27.98
2019-05-29T16:50:48.620Z,27.98
2019-05-29T16:53:06.536Z,31.06
2019-05-29T16:55:23.372Z,30.76
2019-05-29T16:57:40.473Z,31.39
2019-05-29T16:59:59.099Z,29.20
2019-05-29T17:05:39.230Z,31.13
2019-05-29T17:07:56.270Z,32.88
2019-05-29T17:10:14.283Z,29.97
2019-05-29T17:12:31.335Z,28.64
2019-05-29T17:14:48.584Z,26.98
2019-05-29T17:17:05.382Z,28.15
2019-05-29T17:19:23.042Z,29.13
2019-05-29T17:21:41.861Z,27.99
2019-05-29T17:23:58.675Z,29.64
2019-05-29T17:26:16.653Z,29.76
2019-05-29T17:28:33.819Z,28.22
2019-05-29T17:30:50.488Z,26.96
2019-05-29T17:33:08.352Z,26.96
2019-05-29T17:35:36.989Z,27.01
2019-05-29T17:37:53.701Z,28.16
2019-05-29T17:40:10.598Z,28.98
2019-05-29T17:42:27.442Z,27.18
2019-05-29T17:44:44.462Z,25.68
2019-05-29T17:47:01.509Z,24.86
2019-05-29T17:49:22.676Z,25.95
2019-05-29T17:51:39.013Z,24.68
2019-05-29T17:53:56.259Z,24.68
2019-05-29T17:56:26.406Z,24.89
2019-05-29T17:58:33.490Z,24.73
2019-05-29T18:00:50.355Z,25.79
2019-05-29T18:03:07.433Z,26.83
2019-05-29T18:05:24.869Z,25.01
2019-05-29T18:07:42.252Z,24.68
2019-05-29T18:09:59.869Z,24.45
2019-05-29T18:12:19.293Z,24.81
2019-05-29T18:14:37.284Z,25.02
2019-05-29T18:16:54.643Z,26.45
2019-05-29T18:19:11.343Z,26.55
2019-05-29T18:21:28.642Z,26.01
2019-05-29T18:23:45.555Z,23.62
2019-05-29T18:26:03.999Z,23.62
2019-05-29T18:28:22.072Z,25.63
2019-05-29T18:33:49.599Z,26.21
2019-05-29T18:36:07.246Z,25.64
2019-05-29T18:38:26.507Z,26.18
2019-05-29T18:40:43.869Z,25.10
2019-05-29T18:43:00.855Z,25.46
2019-05-29T18:45:22.951Z,25.45
2019-05-29T18:47:39.260Z,25.33
2019-05-29T18:49:56.287Z,25.39
2019-05-29T18:52:15.933Z,24.70
2019-05-29T18:54:35.235Z,23.27
2019-05-29T18:57:13.608Z,23.98
2019-05-29T18:59:11.947Z,21.93
2019-05-29T19:01:31.616Z,22.06
2019-05-29T19:03:52.325Z,23.14
2019-05-29T19:06:09.483Z,23.45
2019-05-29T19:08:29.781Z,23.27
2019-05-29T19:10:47.854Z,22.62
2019-05-29T19:13:04.895Z,22.62
2019-05-29T19:15:21.887Z,23.11
2019-05-29T19:17:39.323Z,23.00
2019-05-29T19:19:56.676Z,23.18
2019-05-29T19:22:13.463Z,22.43
2019-05-29T19:24:32.419Z,22.61
2019-05-29T19:26:50.370Z,22.85
2019-05-29T19:29:07.325Z,22.89
2019-05-29T19:31:24.966Z,22.45
2019-05-29T19:33:42.386Z,22.26
2019-05-29T19:35:59.423Z,22.50
2019-05-29T19:38:23.852Z,22.44
2019-05-29T19:40:40.820Z,21.70
2019-05-29T19:42:58.231Z,21.95
2019-05-29T19:45:20.423Z,22.03
2019-05-29T19:47:37.451Z,21.93
2019-05-29T19:49:54.470Z,22.08
2019-05-29T19:52:13.051Z,21.66
2019-05-29T19:54:35.868Z,21.44
2019-05-29T19:56:53.685Z,20.80
2019-05-29T19:59:10.634Z,20.50
2019-05-29T20:01:31.638Z,20.84
2019-05-29T20:03:46.567Z,20.41
2019-05-29T20:06:05.509Z,20.41
2019-05-29T20:08:23.355Z,20.07
2019-05-29T20:10:43.188Z,20.24
2019-05-29T20:13:00.330Z,20.44
2019-05-29T20:18:32.101Z,20.19
2019-05-29T20:20:49.407Z,20.02
2019-05-29T20:23:06.494Z,20.27
2019-05-29T20:25:23.309Z,19.82
2019-05-29T20:27:40.854Z,20.19
2019-05-29T20:30:00.513Z,20.62
2019-05-29T20:32:18.254Z,20.70
2019-05-29T20:34:37.355Z,20.61
2019-05-29T20:36:54.342Z,20.67
2019-05-29T20:39:13.276Z,20.63
2019-05-29T20:41:34.091Z,20.48
2019-05-29T20:43:49.961Z,20.44
2019-05-29T20:46:06.681Z,20.16
2019-05-29T20:48:24.888Z,19.98
2019-05-29T20:50:45.865Z,19.98
2019-05-29T20:53:05.231Z,20.00
2019-05-29T20:55:22.276Z,20.11
2019-05-29T20:57:40.164Z,20.09
2019-05-29T20:59:59.561Z,19.97
2019-05-29T21:02:18.853Z,19.93
2019-05-29T21:04:36.369Z,19.73
2019-05-29T21:06:53.657Z,19.51
2019-05-29T21:09:10.870Z,19.64
2019-05-29T21:11:30.510Z,19.51
2019-05-29T21:14:48.682Z,19.54
2019-05-29T21:17:06.511Z,19.54
2019-05-29T21:19:23.450Z,19.42
2019-05-29T21:21:40.448Z,19.30
2019-05-29T21:23:57.280Z,19.35
2019-05-29T21:26:14.549Z,18.93
2019-05-29T21:28:39.766Z,18.33
2019-05-29T21:30:50.278Z,18.17
2019-05-29T21:33:07.238Z,18.69
2019-05-29T21:35:24.495Z,18.86
2019-05-29T21:37:42.483Z,18.97
2019-05-29T21:39:59.822Z,18.85
2019-05-29T21:42:17.712Z,18.77
2019-05-29T21:44:34.974Z,18.68
2019-05-29T21:46:52.447Z,18.48
2019-05-29T21:49:12.603Z,18.70
2019-05-29T21:51:32.585Z,18.45
2019-05-29T21:53:51.468Z,18.69
2019-05-29T21:56:08.485Z,18.64
2019-05-29T21:58:27.798Z,18.57
2019-05-29T22:00:49.950Z,18.49
2019-05-29T22:03:08.451Z,18.49
2019-05-29T22:05:27.324Z,18.35
2019-05-29T22:07:44.856Z,18.48
2019-05-29T22:10:03.128Z,18.28
2019-05-29T22:12:20.246Z,18.34
2019-05-29T22:14:37.636Z,18.30
2019-05-29T22:16:54.959Z,18.00
2019-05-29T22:19:12.452Z,18.09
2019-05-29T22:21:31.473Z,18.13
2019-05-29T22:23:48.370Z,18.09
2019-05-29T22:26:05.464Z,17.98
2019-05-29T22:28:22.698Z,18.06
2019-05-29T22:30:39.402Z,17.82
2019-05-29T22:32:57.433Z,17.87
2019-05-29T22:35:14.433Z,17.55
2019-05-29T22:37:33.845Z,17.77
2019-05-29T22:39:51.474Z,17.84
2019-05-29T22:42:08.617Z,17.69
2019-05-29T22:44:25.488Z,17.69
2019-05-29T22:46:42.418Z,17.68
2019-05-29T22:48:59.834Z,17.47
2019-05-29T22:51:17.107Z,17.52
2019-05-29T22:53:34.097Z,17.37
2019-05-29T22:55:51.625Z,17.41
2019-05-29T22:58:08.833Z,17.15
2019-05-29T23:00:25.448Z,17.15
2019-05-29T23:02:42.252Z,17.18
2019-05-29T23:05:00.556Z,17.28
2019-05-29T23:07:17.618Z,17.31
2019-05-29T23:09:34.647Z,17.16
2019-05-29T23:11:54.164Z,17.47
2019-05-29T23:14:11.260Z,17.35
2019-05-29T23:16:29.480Z,17.26
2019-05-29T23:18:46.372Z,17.25
2019-05-29T23:21:03.437Z,17.26
2019-05-29T23:23:20.427Z,17.29
2019-05-29T23:25:37.496Z,17.38
2019-05-29T23:27:54.855Z,17.15
2019-05-29T23:30:12.242Z,17.15
2019-05-29T23:32:29.010Z,17.16
2019-05-29T23:34:45.830Z,17.08
2019-05-29T23:37:03.374Z,16.79
2019-05-29T23:39:20.259Z,16.70
2019-05-29T23:41:37.271Z,16.87
2019-05-29T23:43:55.445Z,16.93
2019-05-29T23:46:12.442Z,16.91
2019-05-29T23:48:29.342Z,16.91
2019-05-29T23:50:46.677Z,16.90
2019-05-29T23:53:04.036Z,16.83
2019-05-29T23:55:22.648Z,16.62
2019-05-29T23:57:39.415Z,16.73
